Time;durP1;ratioP1;P1;durP2;ratioP2;P2;SDS_P1;SDS_P2;PMS_P1;PMS_P2;Temp;Humidity;BMP_temperature;BMP_pressure;BME280_temperature;BME280_humidity;BME280_pressure;Samples;Min_cycle;Max_cycle;Signal;HPM_P1;HPM_P2
2022/10/08 00:50:22;;;;;;;8.20;2.35;;;12.30;99.90;;;;;;4991071;28;20286;-96
2022/10/08 00:53:17;;;;;;;16.30;3.10;;;12.20;99.90;;;;;;4959592;28;20051;-96
2022/10/08 00:56:08;;;;;;;;;;;12.40;99.90;;;;;;4959581;28;20590;-96
2022/10/08 00:59:18;;;;;;;15.85;3.88;;;12.20;99.90;;;;;;4958543;28;19925;-96
2022/10/08 01:02:19;;;;;;;;;;;;;;;;;;;;;
2022/10/08 01:05:05;;;;;;;13.25;3.00;;;12.20;99.90;;;;;;4973389;28;20241;-95
2022/10/08 01:08:28;;;;;;;16.52;2.80;;;12.30;99.90;;;;;;4958413;28;20042;-95
2022/10/08 01:11:40;;;;;;;12.43;3.20;;;12.20;99.90;;;;;;4954976;28;20054;-95
2022/10/08 01:14:41;;;;;;;7.43;2.63;;;12.20;99.90;;;;;;4958437;28;20064;-96
2022/10/08 01:17:37;;;;;;;11.48;2.83;;;12.20;99.90;;;;;;4976388;28;20065;-96
2022/10/08 01:20:46;;;;;;;11.18;2.38;;;12.10;99.90;;;;;;4959411;28;20174;-96
2022/10/08 01:23:55;;;;;;;12.85;2.50;;;12.30;99.90;;;;;;4964693;28;20097;-96
2022/10/08 01:26:31;;;;;;;10.48;2.55;;;12.30;99.90;;;;;;4955833;28;20407;-96
2022/10/08 01:30:03;;;;;;;17.55;2.30;;;12.20;99.90;;;;;;4955917;28;20054;-96
2022/10/08 01:34:26;;;;;;;7.90;2.10;;;12.00;99.90;;;;;;4950417;28;20079;-96
2022/10/08 01:37:11;;;;;;;7.47;2.35;;;12.30;99.90;;;;;;4964171;28;20055;-96
2022/10/08 01:40:08;;;;;;;12.18;2.50;;;12.30;99.90;;;;;;4975543;28;20059;-96
2022/10/08 03:23:38;;;;;;;7.78;2.50;;;11.10;99.90;;;;;;4935513;29;20055;-96
2022/10/08 03:26:07;;;;;;;11.25;3.45;;;10.90;99.90;;;;;;4937682;29;20054;-96
2022/10/08 03:28:46;;;;;;;14.65;3.50;;;11.00;99.90;;;;;;4920731;29;20043;-96
2022/10/08 03:31:39;;;;;;;11.30;3.28;;;11.10;99.90;;;;;;4919545;29;21958;-96
2022/10/08 03:40:32;;;;;;;19.23;3.70;;;10.90;99.90;;;;;;4891799;29;20056;-96
2022/10/08 03:43:24;;;;;;;17.27;3.55;;;10.40;99.90;;;;;;4904130;29;20047;-96
2022/10/08 03:46:10;;;;;;;13.20;3.40;;;10.80;99.90;;;;;;4902442;29;20111;-96
2022/10/08 03:48:47;;;;;;;16.85;3.40;;;10.90;99.90;;;;;;4903179;29;20047;-96
2022/10/08 03:52:06;;;;;;;19.60;3.90;;;10.80;99.90;;;;;;4902585;29;20056;-96
2022/10/08 03:55:11;;;;;;;14.40;3.67;;;10.80;99.90;;;;;;4897711;29;20147;-96
2022/10/08 04:01:19;;;;;;;18.70;3.80;;;11.00;99.90;;;;;;4895717;29;20056;-96
2022/10/08 04:04:21;;;;;;;18.38;3.53;;;11.10;99.90;;;;;;4919403;29;20055;-96
2022/10/08 04:10:39;;;;;;;17.08;3.90;;;10.90;99.90;;;;;;4886697;29;20136;-96
2022/10/08 04:16:58;;;;;;;22.63;4.68;;;10.90;99.90;;;;;;4903738;29;20311;-96
2022/10/08 04:19:51;;;;;;;22.10;3.78;;;10.90;99.90;;;;;;4916239;29;20146;-96
2022/10/08 04:22:35;;;;;;;14.50;3.65;;;11.10;99.90;;;;;;4919295;29;20059;-96
2022/10/08 04:25:58;;;;;;;18.60;3.63;;;10.70;99.90;;;;;;4936431;29;20483;-96
2022/10/08 04:28:59;;;;;;;16.40;3.60;;;10.70;99.90;;;;;;4927131;29;20134;-96
2022/10/08 04:32:04;;;;;;;18.98;3.92;;;10.70;99.90;;;;;;4926146;28;20054;-96
2022/10/08 04:35:21;;;;;;;18.17;3.75;;;10.80;99.90;;;;;;4894755;29;20055;-96
2022/10/08 04:38:31;;;;;;;20.30;3.63;;;10.40;99.90;;;;;;4935698;29;20098;-96
2022/10/08 04:41:22;;;;;;;13.90;3.38;;;10.90;99.90;;;;;;4887691;29;20051;-96
2022/10/08 04:44:02;;;;;;;17.33;3.25;;;10.60;99.90;;;;;;4919230;29;20095;-96
2022/10/08 04:46:31;;;;;;;20.02;3.22;;;10.50;99.90;;;;;;4920111;29;20054;-96
2022/10/08 04:52:05;;;;;;;12.00;2.90;;;10.50;99.90;;;;;;4936218;29;20087;-96
2022/10/08 04:55:23;;;;;;;25.48;3.85;;;10.30;99.90;;;;;;4921868;29;20047;-96
2022/10/08 04:58:14;;;;;;;16.70;3.72;;;11.00;99.90;;;;;;4920306;29;20047;-96
2022/10/08 05:01:21;;;;;;;21.90;3.40;;;10.60;99.90;;;;;;4864751;29;20056;-96
2022/10/08 05:04:10;;;;;;;17.98;3.10;;;10.50;99.90;;;;;;4877274;29;20060;-96
2022/10/08 05:07:03;;;;;;;19.63;3.40;;;10.50;99.90;;;;;;4928534;29;20142;-96
2022/10/08 05:09:47;;;;;;;14.23;3.42;;;10.30;99.90;;;;;;4909324;29;20063;-96
2022/10/08 05:12:58;;;;;;;20.13;3.30;;;10.30;99.90;;;;;;4936970;29;20051;-96
2022/10/08 05:15:48;;;;;;;19.70;3.10;;;10.30;99.90;;;;;;4920488;29;20059;-96
2022/10/08 05:18:32;;;;;;;18.05;4.10;;;10.40;99.90;;;;;;4920097;29;20047;-96
2022/10/08 05:21:33;;;;;;;23.80;5.35;;;10.30;99.90;;;;;;4916232;29;20137;-96
2022/10/08 05:24:45;;;;;;;24.88;6.03;;;10.40;99.90;;;;;;4935866;29;20055;-96
2022/10/08 05:27:53;;;;;;;23.80;4.57;;;10.50;99.90;;;;;;4911175;29;20165;-96
2022/10/08 05:31:26;;;;;;;17.48;3.95;;;10.50;99.90;;;;;;4937405;29;20047;-96
2022/10/08 05:34:18;;;;;;;20.00;3.88;;;10.30;99.90;;;;;;4884268;29;20062;-96
2022/10/08 05:37:05;;;;;;;14.10;3.15;;;10.20;99.90;;;;;;4906526;29;20082;-96
2022/10/08 05:40:08;;;;;;;17.05;3.67;;;10.30;99.90;;;;;;4941544;28;20145;-96
2022/10/08 05:43:11;;;;;;;15.93;3.10;;;10.30;99.90;;;;;;4954626;28;20100;-96
2022/10/08 05:46:17;;;;;;;17.25;3.25;;;10.20;99.90;;;;;;4935950;28;20082;-96
2022/10/08 05:49:33;;;;;;;20.67;3.92;;;10.20;99.90;;;;;;4957061;28;20545;-96
2022/10/08 05:52:43;;;;;;;21.13;3.10;;;10.00;99.90;;;;;;4969705;28;20059;-96
2022/10/08 05:55:45;;;;;;;18.08;3.08;;;10.10;99.90;;;;;;4928818;28;20141;-96
2022/10/08 05:58:41;;;;;;;18.73;2.97;;;10.50;99.90;;;;;;4937837;28;20054;-96
2022/10/08 06:02:04;;;;;;;17.67;3.22;;;10.00;99.90;;;;;;4941110;28;20148;-96
2022/10/08 06:04:56;;;;;;;24.55;3.80;;;10.10;99.90;;;;;;4982756;28;20057;-96
2022/10/08 07:05:11;;;;;;;13.77;1.38;;;11.10;99.90;;;;;;4998114;23;20062;-90
2022/10/08 07:09:13;;;;;;;17.92;1.73;;;11.00;99.90;;;;;;4914482;29;20048;-88
2022/10/08 09:57:02;;;;;;;12.05;1.73;;;14.00;99.90;;;;;;4869633;29;20055;-93
2022/10/08 10:00:41;;;;;;;11.32;1.60;;;13.90;99.90;;;;;;4862032;29;20557;-95
2022/10/08 10:15:33;;;;;;;11.93;2.22;;;13.10;99.90;;;;;;4875656;29;20315;-95
2022/10/08 10:18:29;;;;;;;13.15;1.65;;;13.10;99.90;;;;;;4875179;29;20116;-95
2022/10/08 10:21:58;;;;;;;;;;;;;;;;;;;;;
2022/10/08 10:25:44;;;;;;;12.82;2.03;;;14.10;99.90;;;;;;4894435;29;20391;-93
2022/10/08 10:36:50;;;;;;;;;;;;;;;;;;;;;
2022/10/08 10:40:21;;;;;;;;;;;;;;;;;;;;;
2022/10/08 10:43:49;;;;;;;10.27;1.73;;;14.80;99.90;;;;;;4905020;29;20092;-95
2022/10/08 10:55:28;;;;;;;13.15;1.80;;;15.10;99.90;;;;;;5418532;23;20059;-94
2022/10/08 10:58:55;;;;;;;11.13;1.40;;;15.20;99.90;;;;;;4934660;29;20138;-94
2022/10/08 11:21:05;;;;;;;;;;;;;;;;;;;;;
2022/10/08 13:33:02;;;;;;;5.63;1.00;;;13.40;99.90;;;;;;4895719;29;20205;-95
2022/10/08 13:35:43;;;;;;;4.25;0.80;;;13.40;99.90;;;;;;4882097;29;20060;-93
2022/10/08 13:42:58;;;;;;;5.10;1.00;;;13.60;99.90;;;;;;4847624;29;20131;-96
2022/10/08 13:46:45;;;;;;;5.70;0.85;;;13.70;99.90;;;;;;4881958;29;20060;-96
2022/10/08 13:50:14;;;;;;;;;;;;;;;;;;;;;
2022/10/08 13:53:44;;;;;;;8.95;1.35;;;13.80;99.90;;;;;;4889971;29;20421;-96
2022/10/08 13:57:04;;;;;;;8.23;1.30;;;13.90;99.90;;;;;;4869715;29;20063;-96
2022/10/08 14:04:19;;;;;;;11.23;1.60;;;14.10;99.90;;;;;;4804640;29;20050;-96
2022/10/08 14:11:20;;;;;;;;;;;;;;;;;;;;;
2022/10/08 14:14:50;;;;;;;10.70;1.40;;;14.00;99.90;;;;;;4845281;29;20540;-96
2022/10/08 14:25:29;;;;;;;10.85;2.17;;;13.80;99.90;;;;;;4867856;29;20127;-95
2022/10/08 14:28:19;;;;;;;8.77;1.38;;;13.70;99.90;;;;;;4863877;29;20117;-96
2022/10/08 14:31:46;;;;;;;8.60;1.05;;;13.70;99.90;;;;;;4874152;29;20133;-96
2022/10/08 14:39:10;;;;;;;6.88;0.80;;;13.80;99.90;;;;;;4862113;29;20053;-95
2022/10/08 14:43:03;;;;;;;10.55;1.20;;;13.80;99.90;;;;;;4848022;29;20073;-95
2022/10/08 14:46:17;;;;;;;;;;;;;;;;;;;;;
2022/10/08 14:49:32;;;;;;;7.28;1.38;;;14.00;99.90;;;;;;4849780;29;20060;-96
2022/10/08 14:53:15;;;;;;;10.60;1.80;;;13.90;99.90;;;;;;4885131;29;20037;-96
2022/10/08 14:57:51;;;;;;;8.75;1.55;;;13.90;99.90;;;;;;4853543;29;20055;-96
2022/10/08 15:01:04;;;;;;;9.65;1.13;;;13.90;99.90;;;;;;4862360;29;20053;-96
2022/10/08 15:04:10;;;;;;;12.23;1.50;;;13.90;99.90;;;;;;4849125;29;20060;-96
2022/10/08 15:06:59;;;;;;;8.27;1.40;;;13.80;99.90;;;;;;4877271;29;20053;-95
2022/10/08 15:09:46;;;;;;;;;;;;;;;;;;;;;
2022/10/08 15:15:42;;;;;;;9.10;1.35;;;13.40;99.90;;;;;;4878717;29;20306;-96
2022/10/08 15:23:14;;;;;;;;;;;;;;;;;;;;;
2022/10/08 15:30:09;;;;;;;12.43;1.52;;;13.40;99.90;;;;;;4855633;29;20064;-95
2022/10/08 15:32:54;;;;;;;17.92;2.47;;;13.40;99.90;;;;;;4873584;29;20053;-94
2022/10/08 15:36:25;;;;;;;17.42;2.00;;;13.50;99.90;;;;;;4872530;29;20037;-94
2022/10/08 15:42:32;;;;;;;10.73;1.70;;;13.40;99.90;;;;;;4876850;29;20053;-94
2022/10/08 15:45:11;;;;;;;17.02;1.67;;;13.30;99.90;;;;;;4849313;29;20056;-95
2022/10/08 15:47:39;;;;;;;11.15;2.30;;;13.20;99.90;;;;;;4865297;29;20064;-94
2022/10/08 15:50:24;;;;;;;14.05;1.52;;;13.10;99.90;;;;;;4861743;29;20511;-94
2022/10/08 15:53:01;;;;;;;16.52;2.22;;;13.10;99.90;;;;;;4861079;29;20057;-94
2022/10/08 15:56:18;;;;;;;12.38;1.60;;;13.00;99.90;;;;;;4861194;29;20092;-95
2022/10/08 15:58:56;;;;;;;9.13;1.35;;;13.00;99.90;;;;;;4851668;29;20112;-93
2022/10/08 16:01:58;;;;;;;10.65;2.05;;;12.90;99.90;;;;;;4865097;29;20045;-94
2022/10/08 16:04:57;;;;;;;10.75;1.75;;;12.90;99.90;;;;;;4859278;29;20071;-95
2022/10/08 16:10:19;;;;;;;10.40;1.40;;;12.90;99.90;;;;;;4895312;29;20058;-89
2022/10/08 16:12:45;;;;;;;16.88;1.85;;;12.90;99.90;;;;;;4901563;29;20040;-86
2022/10/08 16:15:22;;;;;;;6.18;0.98;;;12.90;99.90;;;;;;4894025;29;20055;-86
2022/10/08 16:18:02;;;;;;;13.27;1.25;;;12.60;99.90;;;;;;4883218;29;20048;-89
2022/10/08 16:20:27;;;;;;;9.15;1.13;;;12.90;99.90;;;;;;4898964;29;20051;-90
2022/10/08 16:22:53;;;;;;;11.68;1.20;;;12.70;99.90;;;;;;4883309;29;20048;-89
2022/10/08 16:25:19;;;;;;;6.57;1.35;;;12.70;99.90;;;;;;4883391;29;20051;-88
2022/10/08 16:27:44;;;;;;;11.63;1.58;;;12.60;99.90;;;;;;4882142;29;20087;-87
2022/10/08 16:30:10;;;;;;;9.73;1.17;;;12.60;99.90;;;;;;4882644;29;20176;-87
2022/10/08 16:32:36;;;;;;;8.43;1.48;;;12.60;99.90;;;;;;4882827;29;20394;-87
2022/10/08 16:35:05;;;;;;;8.82;1.50;;;12.50;99.90;;;;;;4882295;29;20076;-90
2022/10/08 16:37:31;;;;;;;11.82;1.77;;;12.50;99.90;;;;;;4883355;29;20158;-86
2022/10/08 16:40:02;;;;;;;7.38;1.63;;;12.20;99.90;;;;;;4896384;29;20474;-86
2022/10/08 16:42:29;;;;;;;12.23;1.40;;;12.40;99.90;;;;;;4881797;29;20115;-88
2022/10/08 16:44:54;;;;;;;10.30;1.38;;;12.40;99.90;;;;;;4881620;29;20512;-87
2022/10/08 16:47:20;;;;;;;8.23;1.77;;;12.40;99.90;;;;;;4883992;29;20052;-86
2022/10/08 16:49:56;;;;;;;9.98;1.60;;;12.50;99.90;;;;;;4903710;29;20044;-87
2022/10/08 16:52:22;;;;;;;10.30;1.50;;;12.50;99.90;;;;;;4881181;29;20087;-87
2022/10/08 16:54:54;;;;;;;10.68;1.58;;;12.50;99.90;;;;;;4889097;29;20184;-86
2022/10/08 16:57:20;;;;;;;9.73;1.25;;;12.50;99.90;;;;;;4885696;29;20044;-86
2022/10/08 16:59:48;;;;;;;10.50;1.42;;;12.50;99.90;;;;;;4890785;29;20044;-86
2022/10/08 17:02:14;;;;;;;11.50;1.70;;;12.50;99.90;;;;;;4894999;29;20048;-86
2022/10/08 17:04:56;;;;;;;8.65;1.35;;;12.60;99.90;;;;;;4879019;29;20389;-85
2022/10/08 17:07:25;;;;;;;12.15;1.65;;;12.60;99.90;;;;;;4886342;29;20435;-86
2022/10/08 17:09:52;;;;;;;11.38;1.70;;;12.50;99.90;;;;;;4911338;29;20047;-86
2022/10/08 17:12:18;;;;;;;14.65;1.70;;;12.40;99.90;;;;;;4887612;29;20511;-86
2022/10/08 17:14:43;;;;;;;9.82;1.48;;;12.40;99.90;;;;;;4893362;29;20067;-86
2022/10/08 17:17:09;;;;;;;13.10;1.77;;;12.30;99.90;;;;;;4892325;29;20815;-85
2022/10/08 17:19:35;;;;;;;11.15;1.58;;;12.30;99.90;;;;;;4886404;29;20044;-87
2022/10/08 17:22:01;;;;;;;11.07;2.13;;;12.20;99.90;;;;;;4882729;29;20060;-86
2022/10/08 17:24:27;;;;;;;12.85;1.75;;;12.00;99.90;;;;;;4902730;29;20496;-87
2022/10/08 17:27:03;;;;;;;11.63;1.77;;;12.10;99.90;;;;;;4894856;29;20056;-87
2022/10/08 17:29:36;;;;;;;20.27;2.50;;;12.00;99.90;;;;;;4898190;29;20043;-86
2022/10/08 17:32:05;;;;;;;14.85;2.00;;;12.00;99.90;;;;;;4913437;29;20054;-86
2022/10/08 17:34:31;;;;;;;11.55;1.98;;;11.90;99.90;;;;;;4913050;29;20077;-86
2022/10/08 17:36:57;;;;;;;14.88;2.28;;;11.90;99.90;;;;;;4894502;29;20126;-87
2022/10/08 17:39:24;;;;;;;12.32;2.22;;;11.80;99.90;;;;;;4894171;29;20052;-85
2022/10/08 17:41:56;;;;;;;15.55;2.47;;;11.80;99.90;;;;;;4879729;29;20175;-88
2022/10/08 17:44:23;;;;;;;12.75;1.92;;;11.50;99.90;;;;;;4877743;29;20079;-87
2022/10/08 17:46:49;;;;;;;18.02;2.45;;;11.80;99.90;;;;;;4887728;29;20131;-86
2022/10/08 17:49:17;;;;;;;9.57;2.15;;;11.70;99.90;;;;;;4910362;29;20779;-87
2022/10/08 17:51:44;;;;;;;13.38;2.28;;;11.70;99.90;;;;;;4893901;29;20050;-87
2022/10/08 17:54:13;;;;;;;13.32;2.15;;;11.60;99.90;;;;;;4894692;29;20822;-87
2022/10/08 17:56:39;;;;;;;18.15;2.70;;;11.70;99.90;;;;;;4891221;29;20445;-86
2022/10/08 17:59:12;;;;;;;13.93;2.03;;;11.60;99.90;;;;;;4879876;29;20114;-87
2022/10/08 18:01:38;;;;;;;14.80;2.97;;;11.60;99.90;;;;;;4880191;29;20138;-87
2022/10/08 18:04:06;;;;;;;10.68;2.28;;;11.60;99.90;;;;;;4879431;29;20475;-87
2022/10/08 18:06:34;;;;;;;8.25;1.58;;;11.70;99.90;;;;;;4894070;29;20130;-86
2022/10/08 18:09:07;;;;;;;11.35;2.22;;;11.70;99.90;;;;;;4876949;29;20160;-87
2022/10/08 18:11:35;;;;;;;16.25;2.25;;;11.70;99.90;;;;;;4893764;29;20173;-86
2022/10/08 18:14:02;;;;;;;11.70;2.13;;;11.80;99.90;;;;;;4893302;29;20060;-86
2022/10/08 18:16:28;;;;;;;13.52;1.95;;;11.70;99.90;;;;;;4878369;29;20765;-86
2022/10/08 18:18:54;;;;;;;11.45;2.15;;;11.70;99.90;;;;;;4899024;29;20054;-87
2022/10/08 18:21:26;;;;;;;12.20;1.88;;;11.60;99.90;;;;;;4899190;29;20051;-86
2022/10/08 18:23:57;;;;;;;10.00;1.67;;;11.60;99.90;;;;;;4896898;29;20138;-87
2022/10/08 18:26:35;;;;;;;15.45;1.95;;;11.60;99.90;;;;;;4899152;29;20048;-89
2022/10/08 18:29:08;;;;;;;15.70;2.55;;;11.60;99.90;;;;;;4899182;29;20051;-86
2022/10/08 18:31:35;;;;;;;11.07;2.33;;;11.50;99.90;;;;;;4897838;29;20044;-87
2022/10/08 18:34:03;;;;;;;12.57;1.90;;;11.60;99.90;;;;;;4897752;29;20083;-86
2022/10/08 18:36:32;;;;;;;13.90;2.00;;;11.60;99.90;;;;;;4896069;29;20051;-86
2022/10/08 18:39:01;;;;;;;11.52;1.85;;;11.70;99.90;;;;;;4912982;29;20080;-85
2022/10/08 18:41:35;;;;;;;13.50;1.77;;;11.70;99.90;;;;;;4896849;29;20051;-88
2022/10/08 18:44:03;;;;;;;11.63;2.20;;;11.60;99.90;;;;;;4895459;29;20048;-85
2022/10/08 18:46:29;;;;;;;15.32;2.17;;;11.60;99.90;;;;;;4896242;29;20682;-86
2022/10/08 18:48:55;;;;;;;9.35;1.90;;;11.50;99.90;;;;;;4912902;29;20814;-86
2022/10/08 18:51:24;;;;;;;11.80;1.92;;;11.50;99.90;;;;;;4908646;29;20056;-85
2022/10/08 18:53:51;;;;;;;12.68;1.90;;;11.40;99.90;;;;;;4887771;29;20154;-86
2022/10/08 18:56:29;;;;;;;14.65;1.95;;;11.40;99.90;;;;;;4885045;29;20505;-85
2022/10/08 18:58:56;;;;;;;12.85;1.92;;;11.30;99.90;;;;;;4891849;29;20079;-86
2022/10/08 19:01:25;;;;;;;12.70;2.13;;;11.20;99.90;;;;;;4895848;29;20058;-85
2022/10/08 19:03:55;;;;;;;10.45;2.08;;;11.20;99.90;;;;;;4912041;29;20047;-85
2022/10/08 19:06:24;;;;;;;9.38;1.98;;;11.10;99.90;;;;;;4895965;29;20595;-85
2022/10/08 19:08:50;;;;;;;16.45;2.20;;;11.00;99.90;;;;;;4895586;29;20063;-85
2022/10/08 19:11:19;;;;;;;11.63;2.20;;;10.90;99.90;;;;;;4911913;29;20066;-86
2022/10/08 19:13:45;;;;;;;13.23;1.80;;;10.80;99.90;;;;;;4897458;29;20053;-86
2022/10/08 19:16:12;;;;;;;10.82;1.65;;;10.70;99.90;;;;;;4887675;29;20047;-86
2022/10/08 19:18:52;;;;;;;11.63;1.90;;;10.50;99.90;;;;;;4888015;29;20039;-86
2022/10/08 19:21:18;;;;;;;16.17;2.17;;;10.40;99.90;;;;;;4879499;29;20052;-84
2022/10/08 19:23:45;;;;;;;14.18;2.03;;;10.20;99.90;;;;;;4890473;29;20090;-86
2022/10/08 19:26:11;;;;;;;16.05;2.45;;;10.10;99.90;;;;;;4915291;29;20130;-84
2022/10/08 19:28:38;;;;;;;12.57;2.83;;;10.00;99.90;;;;;;4900174;29;20135;-85
2022/10/08 19:31:17;;;;;;;21.33;3.75;;;10.00;99.90;;;;;;4898965;29;20164;-85
2022/10/08 19:33:48;;;;;;;9.38;2.83;;;9.80;99.90;;;;;;4888875;29;20083;-86
2022/10/08 19:36:16;;;;;;;14.57;2.33;;;9.80;99.90;;;;;;4879282;29;20044;-84
2022/10/08 19:38:43;;;;;;;14.20;2.83;;;9.70;99.90;;;;;;4894627;29;20142;-86
2022/10/08 19:41:10;;;;;;;12.88;2.78;;;9.60;99.90;;;;;;4879934;29;20440;-86
2022/10/08 19:43:36;;;;;;;10.80;2.20;;;9.60;99.90;;;;;;4879721;29;20445;-85
2022/10/08 19:46:04;;;;;;;14.55;2.45;;;9.50;99.90;;;;;;4877963;29;20067;-86
2022/10/08 19:48:30;;;;;;;15.73;3.22;;;9.40;99.90;;;;;;4923933;29;21042;-87
2022/10/08 19:51:02;;;;;;;16.00;3.22;;;9.40;99.90;;;;;;4898566;29;20142;-86
2022/10/08 19:53:27;;;;;;;16.45;3.13;;;9.30;99.90;;;;;;4899337;29;20047;-86
2022/10/08 19:55:53;;;;;;;14.15;3.22;;;9.30;99.90;;;;;;4899395;29;20815;-87
2022/10/08 19:58:19;;;;;;;12.75;2.72;;;9.20;99.90;;;;;;4898583;29;20083;-85
2022/10/08 20:00:45;;;;;;;11.30;2.53;;;9.20;99.90;;;;;;4913061;29;20044;-85
2022/10/08 20:03:10;;;;;;;12.35;2.45;;;9.20;99.90;;;;;;4898766;29;20087;-85
2022/10/08 20:05:36;;;;;;;18.45;3.35;;;9.20;99.90;;;;;;4897858;29;20047;-86
2022/10/08 20:08:02;;;;;;;15.93;2.67;;;9.10;99.90;;;;;;4898591;29;20056;-86
2022/10/08 20:10:28;;;;;;;14.23;2.60;;;9.10;99.90;;;;;;4914454;29;20477;-86
2022/10/08 20:12:53;;;;;;;12.60;2.75;;;9.10;99.90;;;;;;4898158;29;20464;-86
2022/10/08 20:15:19;;;;;;;12.60;3.15;;;9.00;99.90;;;;;;4914387;29;20151;-86
2022/10/08 20:17:45;;;;;;;16.20;2.85;;;9.00;99.90;;;;;;4914133;29;20086;-87
2022/10/08 20:20:11;;;;;;;11.18;2.70;;;9.00;99.90;;;;;;4894143;29;20046;-85
2022/10/08 20:22:37;;;;;;;11.38;2.58;;;8.90;99.90;;;;;;4880766;29;20075;-83
2022/10/08 20:25:03;;;;;;;11.32;2.75;;;9.10;99.90;;;;;;4900298;29;20758;-84
2022/10/08 20:27:30;;;;;;;18.08;3.47;;;8.80;99.90;;;;;;4898240;29;20063;-86
2022/10/08 20:29:56;;;;;;;14.07;2.50;;;8.70;99.90;;;;;;4880366;29;20048;-86
2022/10/08 20:32:21;;;;;;;8.93;2.30;;;8.30;99.90;;;;;;4878583;29;20116;-86
2022/10/08 20:34:47;;;;;;;13.35;2.95;;;8.60;99.90;;;;;;4897235;29;20415;-84
2022/10/08 20:37:13;;;;;;;10.73;3.00;;;8.50;99.90;;;;;;4894407;29;20071;-87
2022/10/08 20:39:39;;;;;;;9.98;2.30;;;8.40;99.90;;;;;;4880130;29;20047;-86
2022/10/08 20:42:04;;;;;;;9.93;2.83;;;8.40;99.90;;;;;;4879716;29;20168;-86
2022/10/08 20:44:31;;;;;;;12.13;2.40;;;8.30;99.90;;;;;;4896349;29;20052;-87
2022/10/08 20:46:59;;;;;;;11.60;2.35;;;8.20;99.90;;;;;;4902845;29;20437;-87
2022/10/08 20:49:25;;;;;;;19.98;3.33;;;8.20;99.90;;;;;;4914208;29;20126;-87
2022/10/08 20:51:50;;;;;;;15.10;4.30;;;8.10;99.90;;;;;;4898024;29;20077;-86
2022/10/08 20:54:17;;;;;;;14.25;3.22;;;8.10;99.90;;;;;;4898352;29;20062;-87
2022/10/08 20:56:43;;;;;;;9.85;2.85;;;8.20;99.90;;;;;;4898644;29;20094;-86
2022/10/08 20:59:14;;;;;;;15.48;3.28;;;8.20;99.90;;;;;;4895234;29;20142;-87
2022/10/08 21:01:40;;;;;;;16.77;3.28;;;8.10;99.90;;;;;;4910877;29;20052;-87
2022/10/08 21:04:07;;;;;;;23.38;3.28;;;8.10;99.90;;;;;;4895288;29;20241;-87
2022/10/08 21:06:37;;;;;;;13.63;2.72;;;8.20;99.90;;;;;;4880148;29;20051;-87
2022/10/08 21:09:03;;;;;;;12.10;2.75;;;8.20;99.90;;;;;;4910343;29;20066;-87
2022/10/08 21:11:29;;;;;;;15.00;2.45;;;8.20;99.90;;;;;;4895197;29;20052;-86
2022/10/08 21:13:58;;;;;;;11.48;2.67;;;8.20;99.90;;;;;;4879720;29;20111;-87
2022/10/08 21:16:27;;;;;;;19.98;2.63;;;8.10;99.90;;;;;;4878613;29;20048;-87
2022/10/08 21:18:55;;;;;;;14.38;2.70;;;8.40;99.90;;;;;;4879807;29;20047;-87
2022/10/08 21:21:22;;;;;;;14.45;2.47;;;8.50;99.90;;;;;;4894146;29;20052;-87
2022/10/08 21:23:48;;;;;;;11.90;2.25;;;8.00;99.90;;;;;;4879296;29;20064;-87
2022/10/08 21:26:17;;;;;;;16.30;2.10;;;8.30;99.90;;;;;;4910593;29;20508;-87
2022/10/08 21:28:44;;;;;;;15.32;2.80;;;8.00;99.90;;;;;;4910517;29;20183;-87
2022/10/08 21:31:11;;;;;;;18.20;2.30;;;8.30;99.90;;;;;;4879021;29;20063;-87
2022/10/08 21:33:39;;;;;;;11.57;2.08;;;8.00;99.90;;;;;;4895087;29;20481;-87
2022/10/08 21:36:08;;;;;;;16.17;2.80;;;7.90;99.90;;;;;;4893702;29;20059;-86
2022/10/08 21:38:34;;;;;;;17.05;3.25;;;7.90;99.90;;;;;;4895490;29;20040;-87
2022/10/08 21:41:04;;;;;;;9.73;2.33;;;7.90;99.90;;;;;;4894754;29;20047;-86
2022/10/08 21:43:30;;;;;;;14.63;2.70;;;7.80;99.90;;;;;;4879257;29;20084;-87
2022/10/08 21:45:59;;;;;;;13.63;2.30;;;7.90;99.90;;;;;;4878755;29;20044;-86
2022/10/08 21:48:26;;;;;;;13.70;3.25;;;7.90;99.90;;;;;;4894977;29;20048;-87
2022/10/08 21:50:56;;;;;;;14.10;2.42;;;7.80;99.90;;;;;;4893540;29;20461;-87
2022/10/08 21:53:22;;;;;;;11.48;2.50;;;7.90;99.90;;;;;;4878818;29;20464;-87
2022/10/08 21:55:56;;;;;;;18.33;2.83;;;7.80;99.90;;;;;;4910153;29;20567;-86
2022/10/08 21:58:23;;;;;;;17.70;3.08;;;7.80;99.90;;;;;;4894388;29;20048;-87
2022/10/08 22:00:49;;;;;;;15.35;2.90;;;7.70;99.90;;;;;;4894822;29;20066;-87
2022/10/08 22:03:17;;;;;;;12.10;3.20;;;8.10;99.90;;;;;;4895153;29;20509;-89
2022/10/08 22:05:51;;;;;;;19.42;3.28;;;7.90;99.90;;;;;;4877718;29;20044;-87
2022/10/08 22:08:17;;;;;;;13.35;3.65;;;7.60;99.90;;;;;;4894951;29;20048;-87
2022/10/08 22:10:42;;;;;;;15.27;3.20;;;7.70;99.90;;;;;;4893813;29;20059;-87
2022/10/08 22:13:08;;;;;;;24.98;4.30;;;8.00;99.90;;;;;;4894056;29;20056;-87
2022/10/08 22:15:34;;;;;;;13.02;2.83;;;7.90;99.90;;;;;;4894748;29;20048;-87
2022/10/08 22:17:59;;;;;;;14.32;3.10;;;7.70;99.90;;;;;;4893798;29;20060;-86
2022/10/08 22:20:25;;;;;;;17.25;4.00;;;7.70;99.90;;;;;;4893896;29;20095;-87
2022/10/08 22:22:51;;;;;;;17.88;3.33;;;7.70;99.90;;;;;;4894518;29;20084;-87
2022/10/08 22:25:16;;;;;;;16.35;3.03;;;7.70;99.90;;;;;;4893756;29;20045;-88
2022/10/08 22:27:42;;;;;;;17.38;4.45;;;7.70;99.90;;;;;;4894340;29;20044;-87
2022/10/08 22:30:08;;;;;;;18.85;3.63;;;7.80;99.90;;;;;;4894278;29;20063;-88
2022/10/08 22:32:34;;;;;;;18.45;3.50;;;7.70;99.90;;;;;;4894561;29;20049;-86
2022/10/08 22:34:59;;;;;;;14.70;3.80;;;7.70;99.90;;;;;;4893739;29;20048;-87
2022/10/08 22:37:25;;;;;;;13.48;3.63;;;7.70;99.90;;;;;;4894252;29;20134;-87
2022/10/08 22:39:51;;;;;;;14.23;2.92;;;7.80;99.90;;;;;;4893673;29;20040;-87
2022/10/08 22:42:16;;;;;;;17.73;3.78;;;8.00;99.90;;;;;;4893901;29;20139;-87
2022/10/08 22:44:42;;;;;;;11.02;3.20;;;7.60;99.90;;;;;;4894283;29;20162;-86
2022/10/08 22:47:08;;;;;;;10.80;3.67;;;7.70;99.90;;;;;;4878778;29;20465;-86
2022/10/08 22:49:33;;;;;;;20.20;3.50;;;7.60;99.90;;;;;;4894040;29;20540;-86
2022/10/08 22:51:59;;;;;;;22.08;3.50;;;7.60;99.90;;;;;;4893417;29;20127;-86
2022/10/08 22:54:25;;;;;;;15.77;3.80;;;7.80;99.90;;;;;;4893528;29;20362;-86
2022/10/08 22:56:50;;;;;;;21.35;3.88;;;7.70;99.90;;;;;;4897506;29;20128;-87
2022/10/08 22:59:16;;;;;;;14.73;3.17;;;7.60;99.90;;;;;;4884150;29;20055;-87
2022/10/08 23:01:42;;;;;;;11.25;3.35;;;7.70;99.90;;;;;;4880992;29;20083;-88
2022/10/08 23:04:07;;;;;;;15.75;3.55;;;7.70;99.90;;;;;;4882273;29;20070;-86
2022/10/08 23:06:34;;;;;;;13.88;3.40;;;7.50;99.90;;;;;;4881966;29;20040;-87
2022/10/08 23:09:03;;;;;;;10.70;3.05;;;7.60;99.90;;;;;;4881111;29;20056;-86
2022/10/08 23:11:30;;;;;;;15.98;3.97;;;7.60;99.90;;;;;;4882033;29;20134;-86
2022/10/08 23:13:57;;;;;;;20.65;3.75;;;7.50;99.90;;;;;;4880867;29;20059;-87
2022/10/08 23:16:25;;;;;;;18.23;3.55;;;7.50;99.90;;;;;;4881782;29;20155;-87
2022/10/08 23:18:56;;;;;;;9.73;2.63;;;7.90;99.90;;;;;;4881691;29;20048;-86
2022/10/08 23:21:22;;;;;;;13.02;3.40;;;7.40;99.90;;;;;;4880768;29;20087;-87
2022/10/08 23:23:50;;;;;;;24.63;3.83;;;7.30;99.90;;;;;;4881028;29;20552;-86
2022/10/08 23:26:16;;;;;;;10.50;3.38;;;7.20;99.90;;;;;;4881477;29;20103;-87
2022/10/08 23:28:43;;;;;;;11.95;3.38;;;7.30;99.90;;;;;;4880995;29;20044;-87
2022/10/08 23:31:16;;;;;;;15.73;3.45;;;7.20;99.90;;;;;;4881266;29;20100;-86
2022/10/08 23:33:44;;;;;;;10.95;2.97;;;7.30;99.90;;;;;;4881061;29;20048;-87
2022/10/08 23:36:12;;;;;;;17.98;3.13;;;7.20;99.90;;;;;;4880882;29;20087;-87
2022/10/08 23:38:38;;;;;;;12.18;3.10;;;7.20;99.90;;;;;;4881564;29;20148;-86
2022/10/08 23:41:06;;;;;;;17.75;2.90;;;7.10;99.90;;;;;;4881557;29;20143;-86
2022/10/08 23:43:35;;;;;;;15.15;2.75;;;7.20;99.90;;;;;;4896564;29;20152;-87
2022/10/08 23:46:02;;;;;;;15.70;2.75;;;7.10;99.90;;;;;;4896688;29;20044;-86
2022/10/08 23:48:27;;;;;;;13.95;3.13;;;7.20;99.90;;;;;;4881139;29;20044;-87
2022/10/08 23:50:53;;;;;;;11.65;3.08;;;7.50;99.90;;;;;;4879574;29;20437;-87
2022/10/08 23:53:20;;;;;;;21.33;3.28;;;7.10;99.90;;;;;;4881215;29;20048;-87
2022/10/08 23:55:46;;;;;;;12.52;4.03;;;7.10;99.90;;;;;;4880682;29;20508;-86
2022/10/08 23:58:13;;;;;;;11.93;3.53;;;7.40;99.90;;;;;;4881131;29;20520;-87
